This is the latest recevied weather packets stored in our database for station/object NE8U. If no packets are shown the sender has not sent any weather packets the latest 10 day(s).
| Time | Temp. | Humidity | Pressure | Rain* | Wind** | Luminosity | Snow |
|---|---|---|---|---|---|---|---|
| 1777495744 | 29.44° C | 11% | 1015.9 hPa | 0 mm | - | 371 W/m² | - |
| 1777495441 | 28.89° C | 11% | 1015.8 hPa | 0 mm | - | 494 W/m² | - |
| 1777495137 | 28.33° C | 10% | 1015.9 hPa | 0 mm | - | 387 W/m² | - |
| 1777494834 | 28.89° C | 10% | 1015.8 hPa | 0 mm | - | 463 W/m² | - |
| 1777494531 | 28.89° C | 10% | 1015.9 hPa | 0 mm | - | 514 W/m² | - |
| 1777494229 | 29.44° C | 10% | 1015.9 hPa | 0 mm | - | 377 W/m² | - |
| 1777493925 | 29.44° C | 10% | 1016.2 hPa | 0 mm | - | 444 W/m² | - |
| 1777493623 | 28.89° C | 11% | 1015.9 hPa | 0 mm | - | 375 W/m² | - |
| 1777493321 | 30° C | 11% | 1016.4 hPa | 0 mm | - | 457 W/m² | - |
| 1777493017 | 28.89° C | 12% | 1016 hPa | 0 mm | - | 472 W/m² | - |
| 1777492714 | 30° C | 12% | 1016.2 hPa | 0 mm | - | 607 W/m² | - |
| 1777492413 | 30° C | 12% | 1016.4 hPa | 0 mm | - | 757 W/m² | - |
| 1777492112 | 28.33° C | 11% | 1016.4 hPa | 0 mm | - | 801 W/m² | - |
| 1777491808 | 28.33° C | 12% | 1016.3 hPa | 0 mm | - | 717 W/m² | - |
| 1777491505 | 29.44° C | 13% | 1016.5 hPa | 0 mm | - | 698 W/m² | - |
| 1777491202 | 29.44° C | 13% | 1016.5 hPa | 0 mm | - | 837 W/m² | - |
| 1777490898 | 27.78° C | 14% | 1016.6 hPa | 0 mm | - | 738 W/m² | - |
| 1777490594 | 29.44° C | 13% | 1016.7 hPa | 0 mm | - | 782 W/m² | - |
| 1777490290 | 27.78° C | 14% | 1016.6 hPa | 0 mm | - | 731 W/m² | - |
| 1777489988 | 28.33° C | 15% | 1017 hPa | 0 mm | - | 801 W/m² | - |
| 1777489686 | 27.78° C | 15% | 1016.8 hPa | 0 mm | - | 809 W/m² | - |
| 1777489382 | 28.33° C | 15% | 1016.8 hPa | 0 mm | - | 820 W/m² | - |
| 1777489079 | 27.78° C | 16% | 1016.8 hPa | 0 mm | - | 819 W/m² | - |
| 1777488775 | 27.78° C | 16% | 1016.9 hPa | 0 mm | - | 783 W/m² | - |
| 1777488474 | 27.78° C | 16% | 1017.1 hPa | 0 mm | - | 760 W/m² | - |
* Rain latest hour (hover to see other rain measurements)
** Current wind speed in m/s (hover to see current wind gust speed)